sensor_id;sensor_type;location;lat;lon;timestamp;temperature;humidity
45761;DHT22;31471;51.040;14.414;2022-11-15T00:01:51;6.20;99.90
45761;DHT22;31471;51.040;14.414;2022-11-15T00:04:35;6.20;99.90
45761;DHT22;31471;51.040;14.414;2022-11-15T00:07:19;6.20;99.90
45761;DHT22;31471;51.040;14.414;2022-11-15T00:10:04;6.20;99.90
45761;DHT22;31471;51.040;14.414;2022-11-15T00:12:48;6.10;99.90
45761;DHT22;31471;51.040;14.414;2022-11-15T00:15:35;6.00;99.90
45761;DHT22;31471;51.040;14.414;2022-11-15T00:18:20;6.00;99.90
45761;DHT22;31471;51.040;14.414;2022-11-15T00:21:10;6.10;99.90
45761;DHT22;31471;51.040;14.414;2022-11-15T00:23:54;6.10;99.90
45761;DHT22;31471;51.040;14.414;2022-11-15T00:26:39;6.00;99.90
45761;DHT22;31471;51.040;14.414;2022-11-15T00:29:23;6.00;99.90
45761;DHT22;31471;51.040;14.414;2022-11-15T00:32:07;6.10;99.90
45761;DHT22;31471;51.040;14.414;2022-11-15T00:34:51;6.10;99.90
45761;DHT22;31471;51.040;14.414;2022-11-15T00:37:35;6.20;99.90
45761;DHT22;31471;51.040;14.414;2022-11-15T00:40:19;6.20;99.90
45761;DHT22;31471;51.040;14.414;2022-11-15T00:43:03;6.20;99.90
45761;DHT22;31471;51.040;14.414;2022-11-15T00:45:48;6.20;99.90
45761;DHT22;31471;51.040;14.414;2022-11-15T00:48:32;6.20;99.90
45761;DHT22;31471;51.040;14.414;2022-11-15T00:51:16;6.30;99.90
45761;DHT22;31471;51.040;14.414;2022-11-15T00:54:00;6.20;99.90
45761;DHT22;31471;51.040;14.414;2022-11-15T00:56:44;6.30;99.90
45761;DHT22;31471;51.040;14.414;2022-11-15T00:59:28;6.30;99.90
45761;DHT22;31471;51.040;14.414;2022-11-15T01:02:12;6.30;99.90
45761;DHT22;31471;51.040;14.414;2022-11-15T01:04:57;6.30;99.90
45761;DHT22;31471;51.040;14.414;2022-11-15T01:07:41;6.40;99.90
45761;DHT22;31471;51.040;14.414;2022-11-15T01:10:25;6.30;99.90
45761;DHT22;31471;51.040;14.414;2022-11-15T01:13:09;6.30;99.90
45761;DHT22;31471;51.040;14.414;2022-11-15T01:15:54;6.30;99.90
45761;DHT22;31471;51.040;14.414;2022-11-15T01:18:38;6.30;99.90
45761;DHT22;31471;51.040;14.414;2022-11-15T01:21:22;6.30;99.90
45761;DHT22;31471;51.040;14.414;2022-11-15T01:24:08;6.30;99.90
45761;DHT22;31471;51.040;14.414;2022-11-15T01:26:55;6.20;99.90
45761;DHT22;31471;51.040;14.414;2022-11-15T01:29:39;6.20;99.90
45761;DHT22;31471;51.040;14.414;2022-11-15T01:32:23;6.20;99.90
45761;DHT22;31471;51.040;14.414;2022-11-15T01:35:08;6.30;99.90
45761;DHT22;31471;51.040;14.414;2022-11-15T01:37:52;6.30;99.90
45761;DHT22;31471;51.040;14.414;2022-11-15T01:40:36;6.30;99.90
45761;DHT22;31471;51.040;14.414;2022-11-15T01:43:21;6.20;99.90
45761;DHT22;31471;51.040;14.414;2022-11-15T01:49:11;6.30;99.90
45761;DHT22;31471;51.040;14.414;2022-11-15T01:51:57;6.30;99.90
45761;DHT22;31471;51.040;14.414;2022-11-15T01:54:42;6.20;99.90
45761;DHT22;31471;51.040;14.414;2022-11-15T01:57:28;6.20;99.90
45761;DHT22;31471;51.040;14.414;2022-11-15T02:00:13;6.20;99.90
45761;DHT22;31471;51.040;14.414;2022-11-15T02:02:57;6.20;99.90
45761;DHT22;31471;51.040;14.414;2022-11-15T02:05:41;6.10;99.90
45761;DHT22;31471;51.040;14.414;2022-11-15T02:08:27;6.10;99.90
45761;DHT22;31471;51.040;14.414;2022-11-15T02:11:11;6.10;99.90
45761;DHT22;31471;51.040;14.414;2022-11-15T02:13:57;6.00;99.90
45761;DHT22;31471;51.040;14.414;2022-11-15T02:32:04;5.80;99.90
45761;DHT22;31471;51.040;14.414;2022-11-15T02:40:59;5.80;99.90
45761;DHT22;31471;51.040;14.414;2022-11-15T02:43:54;5.90;99.90
45761;DHT22;31471;51.040;14.414;2022-11-15T02:46:54;5.90;99.90
45761;DHT22;31471;51.040;14.414;2022-11-15T02:50:00;5.90;99.90
45761;DHT22;31471;51.040;14.414;2022-11-15T02:52:47;5.90;99.90
45761;DHT22;31471;51.040;14.414;2022-11-15T02:55:37;5.80;99.90
45761;DHT22;31471;51.040;14.414;2022-11-15T03:01:13;5.80;99.90
45761;DHT22;31471;51.040;14.414;2022-11-15T03:07:27;5.80;99.90
45761;DHT22;31471;51.040;14.414;2022-11-15T03:13:27;5.80;99.90
45761;DHT22;31471;51.040;14.414;2022-11-15T03:19:48;5.80;99.90
45761;DHT22;31471;51.040;14.414;2022-11-15T03:22:37;5.80;99.90
45761;DHT22;31471;51.040;14.414;2022-11-15T03:25:24;5.80;99.90
45761;DHT22;31471;51.040;14.414;2022-11-15T03:28:14;5.70;99.90
45761;DHT22;31471;51.040;14.414;2022-11-15T03:31:02;5.70;99.90
45761;DHT22;31471;51.040;14.414;2022-11-15T03:34:11;5.70;99.90
45761;DHT22;31471;51.040;14.414;2022-11-15T03:36:57;5.60;99.90
45761;DHT22;31471;51.040;14.414;2022-11-15T03:39:42;5.60;99.90
45761;DHT22;31471;51.040;14.414;2022-11-15T03:42:31;5.60;99.90
45761;DHT22;31471;51.040;14.414;2022-11-15T03:45:23;5.60;99.90
45761;DHT22;31471;51.040;14.414;2022-11-15T03:48:18;5.60;99.90
45761;DHT22;31471;51.040;14.414;2022-11-15T03:51:04;5.50;99.90
45761;DHT22;31471;51.040;14.414;2022-11-15T03:53:50;5.50;99.90
45761;DHT22;31471;51.040;14.414;2022-11-15T03:56:34;5.50;99.90
45761;DHT22;31471;51.040;14.414;2022-11-15T03:59:18;5.50;99.90
45761;DHT22;31471;51.040;14.414;2022-11-15T04:02:02;5.50;99.90
45761;DHT22;31471;51.040;14.414;2022-11-15T04:04:46;5.50;99.90
45761;DHT22;31471;51.040;14.414;2022-11-15T04:07:30;5.50;99.90
45761;DHT22;31471;51.040;14.414;2022-11-15T04:10:15;5.50;99.90
45761;DHT22;31471;51.040;14.414;2022-11-15T04:13:01;5.50;99.90
45761;DHT22;31471;51.040;14.414;2022-11-15T04:15:45;5.50;99.90
45761;DHT22;31471;51.040;14.414;2022-11-15T04:18:29;5.50;99.90
45761;DHT22;31471;51.040;14.414;2022-11-15T04:21:13;5.50;99.90
45761;DHT22;31471;51.040;14.414;2022-11-15T04:24:16;5.40;99.90
45761;DHT22;31471;51.040;14.414;2022-11-15T04:27:01;5.40;99.90
45761;DHT22;31471;51.040;14.414;2022-11-15T04:29:45;5.40;99.90
45761;DHT22;31471;51.040;14.414;2022-11-15T04:32:29;5.40;99.90
45761;DHT22;31471;51.040;14.414;2022-11-15T04:35:13;5.40;99.90
45761;DHT22;31471;51.040;14.414;2022-11-15T04:37:58;5.40;99.90
45761;DHT22;31471;51.040;14.414;2022-11-15T04:40:42;5.40;99.90
45761;DHT22;31471;51.040;14.414;2022-11-15T04:43:27;5.40;99.90
45761;DHT22;31471;51.040;14.414;2022-11-15T04:46:11;5.40;99.90
45761;DHT22;31471;51.040;14.414;2022-11-15T04:48:55;5.40;99.90
45761;DHT22;31471;51.040;14.414;2022-11-15T04:51:39;5.40;99.90
45761;DHT22;31471;51.040;14.414;2022-11-15T04:54:23;5.40;99.90
45761;DHT22;31471;51.040;14.414;2022-11-15T04:57:07;5.40;99.90
45761;DHT22;31471;51.040;14.414;2022-11-15T04:59:51;5.50;99.90
45761;DHT22;31471;51.040;14.414;2022-11-15T05:02:35;5.40;99.90
45761;DHT22;31471;51.040;14.414;2022-11-15T05:05:39;5.40;99.90
45761;DHT22;31471;51.040;14.414;2022-11-15T05:08:23;5.40;99.90
45761;DHT22;31471;51.040;14.414;2022-11-15T05:11:07;5.40;99.90
45761;DHT22;31471;51.040;14.414;2022-11-15T05:13:51;5.40;99.90
45761;DHT22;31471;51.040;14.414;2022-11-15T05:16:35;5.40;99.90
45761;DHT22;31471;51.040;14.414;2022-11-15T05:19:20;5.40;99.90
45761;DHT22;31471;51.040;14.414;2022-11-15T05:22:04;5.40;99.90
45761;DHT22;31471;51.040;14.414;2022-11-15T05:24:48;5.30;99.90
45761;DHT22;31471;51.040;14.414;2022-11-15T05:27:33;5.40;99.90
45761;DHT22;31471;51.040;14.414;2022-11-15T05:30:18;5.40;99.90
45761;DHT22;31471;51.040;14.414;2022-11-15T05:33:02;5.40;99.90
45761;DHT22;31471;51.040;14.414;2022-11-15T05:35:50;5.40;99.90
45761;DHT22;31471;51.040;14.414;2022-11-15T05:38:37;5.40;99.90
45761;DHT22;31471;51.040;14.414;2022-11-15T05:41:37;5.30;99.90
45761;DHT22;31471;51.040;14.414;2022-11-15T05:44:24;5.30;99.90
45761;DHT22;31471;51.040;14.414;2022-11-15T05:47:14;5.30;99.90
45761;DHT22;31471;51.040;14.414;2022-11-15T05:50:00;5.30;99.90
45761;DHT22;31471;51.040;14.414;2022-11-15T05:52:45;5.30;99.90
45761;DHT22;31471;51.040;14.414;2022-11-15T05:55:29;5.20;99.90
45761;DHT22;31471;51.040;14.414;2022-11-15T05:58:14;5.20;99.90
45761;DHT22;31471;51.040;14.414;2022-11-15T06:00:59;5.20;99.90
45761;DHT22;31471;51.040;14.414;2022-11-15T06:03:44;5.20;99.90
45761;DHT22;31471;51.040;14.414;2022-11-15T06:06:28;5.20;99.90
45761;DHT22;31471;51.040;14.414;2022-11-15T06:09:12;5.20;99.90
45761;DHT22;31471;51.040;14.414;2022-11-15T06:11:56;5.20;99.90
45761;DHT22;31471;51.040;14.414;2022-11-15T06:14:40;5.20;99.90
45761;DHT22;31471;51.040;14.414;2022-11-15T06:17:24;5.20;99.90
45761;DHT22;31471;51.040;14.414;2022-11-15T06:20:09;5.20;99.90
45761;DHT22;31471;51.040;14.414;2022-11-15T06:23:01;5.20;99.90
45761;DHT22;31471;51.040;14.414;2022-11-15T06:25:45;5.20;99.90
45761;DHT22;31471;51.040;14.414;2022-11-15T06:28:31;5.20;99.90
45761;DHT22;31471;51.040;14.414;2022-11-15T06:31:15;5.20;99.90
45761;DHT22;31471;51.040;14.414;2022-11-15T06:33:59;5.20;99.90
45761;DHT22;31471;51.040;14.414;2022-11-15T06:36:43;5.20;99.90
45761;DHT22;31471;51.040;14.414;2022-11-15T06:39:27;5.20;99.90
45761;DHT22;31471;51.040;14.414;2022-11-15T06:42:12;5.20;99.90
45761;DHT22;31471;51.040;14.414;2022-11-15T06:44:56;5.20;99.90
45761;DHT22;31471;51.040;14.414;2022-11-15T06:47:46;5.20;99.90
45761;DHT22;31471;51.040;14.414;2022-11-15T06:50:31;5.20;99.90
45761;DHT22;31471;51.040;14.414;2022-11-15T06:53:15;5.20;99.90
45761;DHT22;31471;51.040;14.414;2022-11-15T06:56:05;5.20;99.90
45761;DHT22;31471;51.040;14.414;2022-11-15T06:58:49;5.30;99.90
45761;DHT22;31471;51.040;14.414;2022-11-15T07:01:33;5.30;99.90
45761;DHT22;31471;51.040;14.414;2022-11-15T07:04:18;5.30;99.90
45761;DHT22;31471;51.040;14.414;2022-11-15T07:07:02;5.30;99.90
45761;DHT22;31471;51.040;14.414;2022-11-15T07:09:46;5.30;99.90
45761;DHT22;31471;51.040;14.414;2022-11-15T07:12:30;5.40;99.90
45761;DHT22;31471;51.040;14.414;2022-11-15T07:15:15;5.40;99.90
45761;DHT22;31471;51.040;14.414;2022-11-15T07:18:02;5.40;99.90
45761;DHT22;31471;51.040;14.414;2022-11-15T07:20:46;5.40;99.90
45761;DHT22;31471;51.040;14.414;2022-11-15T07:23:31;5.40;99.90
45761;DHT22;31471;51.040;14.414;2022-11-15T07:26:15;5.40;99.90
45761;DHT22;31471;51.040;14.414;2022-11-15T07:28:59;5.40;99.90
45761;DHT22;31471;51.040;14.414;2022-11-15T07:31:43;5.40;99.90
45761;DHT22;31471;51.040;14.414;2022-11-15T07:34:27;5.50;99.90
45761;DHT22;31471;51.040;14.414;2022-11-15T07:37:11;5.50;99.90
45761;DHT22;31471;51.040;14.414;2022-11-15T07:39:56;5.50;99.90
45761;DHT22;31471;51.040;14.414;2022-11-15T07:42:40;5.60;99.90
45761;DHT22;31471;51.040;14.414;2022-11-15T07:45:44;5.60;99.90
45761;DHT22;31471;51.040;14.414;2022-11-15T07:48:28;5.70;99.90
45761;DHT22;31471;51.040;14.414;2022-11-15T07:51:16;5.60;99.90
45761;DHT22;31471;51.040;14.414;2022-11-15T07:54:01;5.70;99.90
45761;DHT22;31471;51.040;14.414;2022-11-15T07:56:44;5.70;99.90
45761;DHT22;31471;51.040;14.414;2022-11-15T07:59:28;5.80;99.90
45761;DHT22;31471;51.040;14.414;2022-11-15T08:02:12;5.70;99.90
45761;DHT22;31471;51.040;14.414;2022-11-15T08:04:57;5.80;99.90
45761;DHT22;31471;51.040;14.414;2022-11-15T08:07:41;5.80;99.90
45761;DHT22;31471;51.040;14.414;2022-11-15T08:10:26;5.80;99.90
45761;DHT22;31471;51.040;14.414;2022-11-15T08:13:11;5.80;99.90
45761;DHT22;31471;51.040;14.414;2022-11-15T08:15:59;5.80;99.90
45761;DHT22;31471;51.040;14.414;2022-11-15T08:18:44;5.90;99.90
45761;DHT22;31471;51.040;14.414;2022-11-15T08:21:28;5.90;99.90
45761;DHT22;31471;51.040;14.414;2022-11-15T08:24:13;5.90;99.90
45761;DHT22;31471;51.040;14.414;2022-11-15T08:26:57;6.00;99.90
45761;DHT22;31471;51.040;14.414;2022-11-15T08:29:42;6.10;99.90
45761;DHT22;31471;51.040;14.414;2022-11-15T08:32:27;6.00;99.90
45761;DHT22;31471;51.040;14.414;2022-11-15T08:35:11;6.00;99.90
45761;DHT22;31471;51.040;14.414;2022-11-15T08:37:55;6.00;99.90
45761;DHT22;31471;51.040;14.414;2022-11-15T08:40:39;6.10;99.90
45761;DHT22;31471;51.040;14.414;2022-11-15T08:43:23;6.10;99.90
45761;DHT22;31471;51.040;14.414;2022-11-15T08:46:11;6.10;99.90
45761;DHT22;31471;51.040;14.414;2022-11-15T08:48:56;6.10;99.90
45761;DHT22;31471;51.040;14.414;2022-11-15T08:51:40;6.20;99.90
45761;DHT22;31471;51.040;14.414;2022-11-15T08:54:24;6.20;99.90
45761;DHT22;31471;51.040;14.414;2022-11-15T08:57:08;6.30;99.90
45761;DHT22;31471;51.040;14.414;2022-11-15T08:59:53;6.30;99.90
45761;DHT22;31471;51.040;14.414;2022-11-15T09:02:41;6.40;99.90
45761;DHT22;31471;51.040;14.414;2022-11-15T09:05:26;6.40;99.90
45761;DHT22;31471;51.040;14.414;2022-11-15T09:08:09;6.50;99.90
45761;DHT22;31471;51.040;14.414;2022-11-15T09:10:55;6.50;99.90
45761;DHT22;31471;51.040;14.414;2022-11-15T09:13:40;6.60;99.90
45761;DHT22;31471;51.040;14.414;2022-11-15T09:16:23;6.70;99.90
45761;DHT22;31471;51.040;14.414;2022-11-15T09:19:08;6.80;99.90
45761;DHT22;31471;51.040;14.414;2022-11-15T09:21:52;6.80;99.90
45761;DHT22;31471;51.040;14.414;2022-11-15T09:24:36;6.80;99.90
45761;DHT22;31471;51.040;14.414;2022-11-15T09:27:20;6.90;99.90
45761;DHT22;31471;51.040;14.414;2022-11-15T09:30:05;6.90;99.90
45761;DHT22;31471;51.040;14.414;2022-11-15T09:32:49;7.00;99.90
45761;DHT22;31471;51.040;14.414;2022-11-15T09:35:33;7.10;99.90
45761;DHT22;31471;51.040;14.414;2022-11-15T09:38:18;7.00;99.90
45761;DHT22;31471;51.040;14.414;2022-11-15T09:41:41;7.10;99.90
45761;DHT22;31471;51.040;14.414;2022-11-15T09:48:31;7.10;99.90
45761;DHT22;31471;51.040;14.414;2022-11-15T09:51:04;7.10;99.90
45761;DHT22;31471;51.040;14.414;2022-11-15T09:53:34;7.10;99.90
45761;DHT22;31471;51.040;14.414;2022-11-15T09:56:14;7.10;99.90
45761;DHT22;31471;51.040;14.414;2022-11-15T10:01:36;7.10;99.90
45761;DHT22;31471;51.040;14.414;2022-11-15T10:04:06;7.20;99.90
45761;DHT22;31471;51.040;14.414;2022-11-15T10:06:32;7.30;99.90
45761;DHT22;31471;51.040;14.414;2022-11-15T10:09:16;7.30;99.90
45761;DHT22;31471;51.040;14.414;2022-11-15T10:11:42;7.40;99.90
45761;DHT22;31471;51.040;14.414;2022-11-15T10:14:17;7.40;99.90
45761;DHT22;31471;51.040;14.414;2022-11-15T10:19:47;7.50;99.90
45761;DHT22;31471;51.040;14.414;2022-11-15T10:24:45;7.40;99.90
45761;DHT22;31471;51.040;14.414;2022-11-15T10:27:14;7.50;99.90
45761;DHT22;31471;51.040;14.414;2022-11-15T10:29:48;7.50;99.90
45761;DHT22;31471;51.040;14.414;2022-11-15T10:32:20;7.40;99.90
45761;DHT22;31471;51.040;14.414;2022-11-15T10:34:48;7.40;99.90
45761;DHT22;31471;51.040;14.414;2022-11-15T10:37:14;7.50;99.90
45761;DHT22;31471;51.040;14.414;2022-11-15T10:39:40;7.60;99.90
45761;DHT22;31471;51.040;14.414;2022-11-15T10:42:26;7.60;99.90
45761;DHT22;31471;51.040;14.414;2022-11-15T10:44:52;7.70;99.90
45761;DHT22;31471;51.040;14.414;2022-11-15T10:47:30;7.60;99.90
45761;DHT22;31471;51.040;14.414;2022-11-15T10:50:06;7.70;99.90
45761;DHT22;31471;51.040;14.414;2022-11-15T10:52:34;7.70;99.90
45761;DHT22;31471;51.040;14.414;2022-11-15T10:57:52;7.80;99.90
45761;DHT22;31471;51.040;14.414;2022-11-15T11:02:58;8.00;99.90
45761;DHT22;31471;51.040;14.414;2022-11-15T11:05:39;8.10;99.90
45761;DHT22;31471;51.040;14.414;2022-11-15T11:10:37;8.30;99.90
45761;DHT22;31471;51.040;14.414;2022-11-15T11:13:22;8.30;99.90
45761;DHT22;31471;51.040;14.414;2022-11-15T11:16:05;8.50;99.90
45761;DHT22;31471;51.040;14.414;2022-11-15T11:18:51;8.60;99.90
45761;DHT22;31471;51.040;14.414;2022-11-15T11:30:17;8.90;99.90
45761;DHT22;31471;51.040;14.414;2022-11-15T11:38:22;8.90;99.90
45761;DHT22;31471;51.040;14.414;2022-11-15T11:48:52;8.70;99.90
45761;DHT22;31471;51.040;14.414;2022-11-15T11:51:26;8.70;99.90
45761;DHT22;31471;51.040;14.414;2022-11-15T11:54:19;8.70;99.90
45761;DHT22;31471;51.040;14.414;2022-11-15T11:56:46;8.70;99.90
45761;DHT22;31471;51.040;14.414;2022-11-15T12:01:44;8.70;99.90
45761;DHT22;31471;51.040;14.414;2022-11-15T12:06:47;8.70;99.90
45761;DHT22;31471;51.040;14.414;2022-11-15T12:09:19;8.70;99.90
45761;DHT22;31471;51.040;14.414;2022-11-15T12:11:57;8.60;99.90
45761;DHT22;31471;51.040;14.414;2022-11-15T12:14:51;8.60;99.90
45761;DHT22;31471;51.040;14.414;2022-11-15T12:17:23;8.60;99.90
45761;DHT22;31471;51.040;14.414;2022-11-15T12:19:49;8.60;99.90
45761;DHT22;31471;51.040;14.414;2022-11-15T12:25:25;8.50;99.90
45761;DHT22;31471;51.040;14.414;2022-11-15T12:30:51;8.50;99.90
45761;DHT22;31471;51.040;14.414;2022-11-15T12:33:42;8.50;99.90
45761;DHT22;31471;51.040;14.414;2022-11-15T12:36:09;8.60;99.90
45761;DHT22;31471;51.040;14.414;2022-11-15T12:39:00;8.60;99.90
45761;DHT22;31471;51.040;14.414;2022-11-15T12:41:39;8.50;99.90
45761;DHT22;31471;51.040;14.414;2022-11-15T12:44:56;8.60;99.90
45761;DHT22;31471;51.040;14.414;2022-11-15T12:59:55;8.50;99.90
45761;DHT22;31471;51.040;14.414;2022-11-15T13:02:43;8.40;99.90
45761;DHT22;31471;51.040;14.414;2022-11-15T13:17:53;8.00;99.90
45761;DHT22;31471;51.040;14.414;2022-11-15T13:20:26;8.00;99.90
45761;DHT22;31471;51.040;14.414;2022-11-15T13:23:07;7.90;99.90
45761;DHT22;31471;51.040;14.414;2022-11-15T13:30:51;7.60;99.90
45761;DHT22;31471;51.040;14.414;2022-11-15T13:35:59;7.50;99.90
45761;DHT22;31471;51.040;14.414;2022-11-15T13:40:52;7.30;99.90
45761;DHT22;31471;51.040;14.414;2022-11-15T13:43:29;7.20;99.90
45761;DHT22;31471;51.040;14.414;2022-11-15T13:46:09;7.20;99.90
45761;DHT22;31471;51.040;14.414;2022-11-15T13:48:35;7.20;99.90
45761;DHT22;31471;51.040;14.414;2022-11-15T13:51:13;7.10;99.90
45761;DHT22;31471;51.040;14.414;2022-11-15T13:53:43;7.10;99.90
45761;DHT22;31471;51.040;14.414;2022-11-15T13:56:13;7.00;99.90
45761;DHT22;31471;51.040;14.414;2022-11-15T13:58:39;6.90;99.90
45761;DHT22;31471;51.040;14.414;2022-11-15T14:01:05;7.00;99.90
45761;DHT22;31471;51.040;14.414;2022-11-15T14:03:40;7.00;99.90
45761;DHT22;31471;51.040;14.414;2022-11-15T14:06:12;6.90;99.90
45761;DHT22;31471;51.040;14.414;2022-11-15T14:08:41;7.00;99.90
45761;DHT22;31471;51.040;14.414;2022-11-15T14:11:13;7.00;99.90
45761;DHT22;31471;51.040;14.414;2022-11-15T14:13:39;7.00;99.90
45761;DHT22;31471;51.040;14.414;2022-11-15T14:16:21;6.90;99.90
45761;DHT22;31471;51.040;14.414;2022-11-15T14:18:57;6.90;99.90
45761;DHT22;31471;51.040;14.414;2022-11-15T14:21:23;7.00;99.90
45761;DHT22;31471;51.040;14.414;2022-11-15T14:23:48;7.00;99.90
45761;DHT22;31471;51.040;14.414;2022-11-15T14:26:29;6.90;99.90
45761;DHT22;31471;51.040;14.414;2022-11-15T14:28:55;7.00;99.90
45761;DHT22;31471;51.040;14.414;2022-11-15T14:31:21;6.80;99.90
45761;DHT22;31471;51.040;14.414;2022-11-15T14:33:47;6.90;99.90
45761;DHT22;31471;51.040;14.414;2022-11-15T14:36:15;6.90;99.90
45761;DHT22;31471;51.040;14.414;2022-11-15T14:38:41;6.90;99.90
45761;DHT22;31471;51.040;14.414;2022-11-15T14:41:24;6.80;99.90
45761;DHT22;31471;51.040;14.414;2022-11-15T14:43:51;6.80;99.90
45761;DHT22;31471;51.040;14.414;2022-11-15T14:46:17;6.80;99.90
45761;DHT22;31471;51.040;14.414;2022-11-15T14:48:43;6.90;99.90
45761;DHT22;31471;51.040;14.414;2022-11-15T14:51:18;6.80;99.90
45761;DHT22;31471;51.040;14.414;2022-11-15T14:53:45;6.60;99.90
45761;DHT22;31471;51.040;14.414;2022-11-15T14:56:11;6.60;99.90
45761;DHT22;31471;51.040;14.414;2022-11-15T14:58:37;6.70;99.90
45761;DHT22;31471;51.040;14.414;2022-11-15T15:01:14;6.70;99.90
45761;DHT22;31471;51.040;14.414;2022-11-15T15:03:41;6.70;99.90
45761;DHT22;31471;51.040;14.414;2022-11-15T15:06:09;6.70;99.90
45761;DHT22;31471;51.040;14.414;2022-11-15T15:08:35;6.70;99.90
45761;DHT22;31471;51.040;14.414;2022-11-15T15:11:00;6.70;99.90
45761;DHT22;31471;51.040;14.414;2022-11-15T15:13:26;6.40;99.90
45761;DHT22;31471;51.040;14.414;2022-11-15T15:15:54;6.40;99.90
45761;DHT22;31471;51.040;14.414;2022-11-15T15:18:20;6.30;99.90
45761;DHT22;31471;51.040;14.414;2022-11-15T15:20:49;6.30;99.90
45761;DHT22;31471;51.040;14.414;2022-11-15T15:23:19;6.10;99.90
45761;DHT22;31471;51.040;14.414;2022-11-15T15:25:47;6.30;99.90
45761;DHT22;31471;51.040;14.414;2022-11-15T15:28:14;6.30;99.90
45761;DHT22;31471;51.040;14.414;2022-11-15T15:30:40;6.30;99.90
45761;DHT22;31471;51.040;14.414;2022-11-15T15:33:05;6.20;99.90
45761;DHT22;31471;51.040;14.414;2022-11-15T15:35:33;6.10;99.90
45761;DHT22;31471;51.040;14.414;2022-11-15T15:38:00;6.20;99.90
45761;DHT22;31471;51.040;14.414;2022-11-15T15:40:28;6.30;99.90
45761;DHT22;31471;51.040;14.414;2022-11-15T15:42:54;6.40;99.90
45761;DHT22;31471;51.040;14.414;2022-11-15T15:45:19;6.40;99.90
45761;DHT22;31471;51.040;14.414;2022-11-15T15:47:45;6.40;99.90
45761;DHT22;31471;51.040;14.414;2022-11-15T15:50:20;6.40;99.90
45761;DHT22;31471;51.040;14.414;2022-11-15T15:52:46;6.40;99.90
45761;DHT22;31471;51.040;14.414;2022-11-15T15:55:12;6.30;99.90
45761;DHT22;31471;51.040;14.414;2022-11-15T15:57:37;6.20;99.90
45761;DHT22;31471;51.040;14.414;2022-11-15T16:00:04;6.10;99.90
45761;DHT22;31471;51.040;14.414;2022-11-15T16:02:37;6.10;99.90
45761;DHT22;31471;51.040;14.414;2022-11-15T16:05:03;6.20;99.90
45761;DHT22;31471;51.040;14.414;2022-11-15T16:07:29;6.20;99.90
45761;DHT22;31471;51.040;14.414;2022-11-15T16:09:55;6.20;99.90
45761;DHT22;31471;51.040;14.414;2022-11-15T16:12:35;6.10;99.90
45761;DHT22;31471;51.040;14.414;2022-11-15T16:15:02;6.10;99.90
45761;DHT22;31471;51.040;14.414;2022-11-15T16:17:34;6.00;99.90
45761;DHT22;31471;51.040;14.414;2022-11-15T16:20:01;6.00;99.90
45761;DHT22;31471;51.040;14.414;2022-11-15T16:22:26;5.90;99.90
45761;DHT22;31471;51.040;14.414;2022-11-15T16:24:54;6.00;99.90
45761;DHT22;31471;51.040;14.414;2022-11-15T16:27:20;6.00;99.90
45761;DHT22;31471;51.040;14.414;2022-11-15T16:29:47;6.00;99.90
45761;DHT22;31471;51.040;14.414;2022-11-15T16:32:13;5.80;99.90
45761;DHT22;31471;51.040;14.414;2022-11-15T16:34:39;5.80;99.90
45761;DHT22;31471;51.040;14.414;2022-11-15T16:37:05;5.90;99.90
45761;DHT22;31471;51.040;14.414;2022-11-15T16:39:31;5.80;99.90
45761;DHT22;31471;51.040;14.414;2022-11-15T16:41:58;5.80;99.90
45761;DHT22;31471;51.040;14.414;2022-11-15T16:44:23;5.90;99.90
45761;DHT22;31471;51.040;14.414;2022-11-15T16:46:50;5.80;99.90
45761;DHT22;31471;51.040;14.414;2022-11-15T16:49:20;5.70;99.90
45761;DHT22;31471;51.040;14.414;2022-11-15T16:51:46;5.80;99.90
45761;DHT22;31471;51.040;14.414;2022-11-15T16:54:12;5.80;99.90
45761;DHT22;31471;51.040;14.414;2022-11-15T16:56:38;5.80;99.90
45761;DHT22;31471;51.040;14.414;2022-11-15T16:59:04;5.80;99.90
45761;DHT22;31471;51.040;14.414;2022-11-15T17:01:33;5.80;99.90
45761;DHT22;31471;51.040;14.414;2022-11-15T17:04:00;5.80;99.90
45761;DHT22;31471;51.040;14.414;2022-11-15T17:06:38;5.60;99.90
45761;DHT22;31471;51.040;14.414;2022-11-15T17:09:05;5.70;99.90
45761;DHT22;31471;51.040;14.414;2022-11-15T17:11:31;5.70;99.90
45761;DHT22;31471;51.040;14.414;2022-11-15T17:13:58;5.80;99.90
45761;DHT22;31471;51.040;14.414;2022-11-15T17:16:24;5.80;99.90
45761;DHT22;31471;51.040;14.414;2022-11-15T17:18:51;5.70;99.90
45761;DHT22;31471;51.040;14.414;2022-11-15T17:21:18;5.80;99.90
45761;DHT22;31471;51.040;14.414;2022-11-15T17:23:44;5.70;99.90
45761;DHT22;31471;51.040;14.414;2022-11-15T17:26:12;5.70;99.90
45761;DHT22;31471;51.040;14.414;2022-11-15T17:28:38;5.70;99.90
45761;DHT22;31471;51.040;14.414;2022-11-15T17:31:08;5.80;99.90
45761;DHT22;31471;51.040;14.414;2022-11-15T17:33:34;5.80;99.90
45761;DHT22;31471;51.040;14.414;2022-11-15T17:36:01;5.60;99.90
45761;DHT22;31471;51.040;14.414;2022-11-15T17:38:27;5.50;99.90
45761;DHT22;31471;51.040;14.414;2022-11-15T17:41:19;5.50;99.90
45761;DHT22;31471;51.040;14.414;2022-11-15T17:43:48;5.60;99.90
45761;DHT22;31471;51.040;14.414;2022-11-15T17:46:18;5.50;99.90
45761;DHT22;31471;51.040;14.414;2022-11-15T17:48:45;5.50;99.90
45761;DHT22;31471;51.040;14.414;2022-11-15T17:51:13;5.60;99.90
45761;DHT22;31471;51.040;14.414;2022-11-15T17:53:41;5.60;99.90
45761;DHT22;31471;51.040;14.414;2022-11-15T17:56:12;5.60;99.90
45761;DHT22;31471;51.040;14.414;2022-11-15T17:58:39;5.50;99.90
45761;DHT22;31471;51.040;14.414;2022-11-15T18:01:22;5.50;99.90
45761;DHT22;31471;51.040;14.414;2022-11-15T18:03:48;5.60;99.90
45761;DHT22;31471;51.040;14.414;2022-11-15T18:06:14;5.70;99.90
45761;DHT22;31471;51.040;14.414;2022-11-15T18:08:41;5.70;99.90
45761;DHT22;31471;51.040;14.414;2022-11-15T18:11:12;5.60;99.90
45761;DHT22;31471;51.040;14.414;2022-11-15T18:13:40;5.70;99.90
45761;DHT22;31471;51.040;14.414;2022-11-15T18:16:10;5.70;99.90
45761;DHT22;31471;51.040;14.414;2022-11-15T18:18:36;5.60;99.90
45761;DHT22;31471;51.040;14.414;2022-11-15T18:21:04;5.60;99.90
45761;DHT22;31471;51.040;14.414;2022-11-15T18:23:31;5.70;99.90
45761;DHT22;31471;51.040;14.414;2022-11-15T18:25:57;5.70;99.90
45761;DHT22;31471;51.040;14.414;2022-11-15T18:28:31;5.70;99.90
45761;DHT22;31471;51.040;14.414;2022-11-15T18:30:57;5.70;99.90
45761;DHT22;31471;51.040;14.414;2022-11-15T18:33:23;5.70;99.90
45761;DHT22;31471;51.040;14.414;2022-11-15T18:35:49;5.70;99.90
45761;DHT22;31471;51.040;14.414;2022-11-15T18:38:15;5.70;99.90
45761;DHT22;31471;51.040;14.414;2022-11-15T18:40:40;5.80;99.90
45761;DHT22;31471;51.040;14.414;2022-11-15T18:43:06;5.70;99.90
45761;DHT22;31471;51.040;14.414;2022-11-15T18:45:35;5.70;99.90
45761;DHT22;31471;51.040;14.414;2022-11-15T18:48:00;5.70;99.90